createdAt,value
2022-08-31T00:00:29.885Z,22.90
2022-08-31T00:03:15.713Z,22.90
2022-08-31T00:05:45.218Z,22.80
2022-08-31T00:08:12.182Z,22.80
2022-08-31T00:10:43.264Z,22.80
2022-08-31T00:13:12.439Z,22.80
2022-08-31T00:15:39.904Z,22.80
2022-08-31T00:18:06.925Z,22.80
2022-08-31T00:20:34.807Z,22.80
2022-08-31T00:23:03.719Z,22.80
2022-08-31T00:25:31.087Z,22.80
2022-08-31T00:27:58.065Z,22.80
2022-08-31T00:30:25.187Z,22.80
2022-08-31T00:32:52.267Z,22.80
2022-08-31T00:35:19.299Z,22.70
2022-08-31T00:37:46.232Z,22.60
2022-08-31T00:40:14.746Z,22.50
2022-08-31T00:42:41.908Z,22.40
2022-08-31T00:45:10.305Z,22.30
2022-08-31T00:47:37.423Z,22.20
2022-08-31T00:50:06.950Z,22.10
2022-08-31T00:52:37.822Z,22.10
2022-08-31T00:55:10.284Z,22.00
2022-08-31T00:57:43.070Z,21.90
2022-08-31T01:00:13.426Z,21.80
2022-08-31T01:02:41.711Z,21.80
2022-08-31T01:05:10.760Z,21.60
2022-08-31T01:07:38.459Z,21.40
2022-08-31T01:10:07.081Z,21.10
2022-08-31T01:12:34.648Z,21.00
2022-08-31T01:15:06.251Z,20.80
2022-08-31T01:17:34.057Z,20.60
2022-08-31T01:20:07.874Z,20.50
2022-08-31T01:22:40.571Z,20.30
2022-08-31T01:25:08.984Z,20.20
2022-08-31T01:27:37.667Z,20.10
2022-08-31T01:30:09.666Z,20.00
2022-08-31T01:32:36.641Z,20.00
2022-08-31T01:35:03.969Z,19.90
2022-08-31T01:37:31.066Z,19.80
2022-08-31T01:39:58.152Z,19.70
2022-08-31T01:42:26.496Z,19.70
2022-08-31T01:45:00.330Z,19.70
2022-08-31T01:47:27.227Z,19.60
2022-08-31T01:49:56.090Z,19.50
2022-08-31T01:52:25.132Z,19.30
2022-08-31T01:54:55.278Z,19.10
2022-08-31T01:57:33.554Z,19.00
2022-08-31T02:00:22.195Z,18.90
2022-08-31T02:02:49.184Z,18.80
2022-08-31T02:05:16.386Z,18.80
2022-08-31T02:07:45.684Z,18.80
2022-08-31T02:10:12.936Z,18.80
2022-08-31T02:12:40.601Z,18.70
2022-08-31T02:15:09.435Z,18.60
2022-08-31T02:17:37.703Z,18.60
2022-08-31T02:20:07.831Z,18.60
2022-08-31T02:22:34.724Z,18.60
2022-08-31T02:25:03.128Z,18.60
2022-08-31T02:27:30.059Z,18.60
2022-08-31T02:29:57.291Z,18.50
2022-08-31T02:32:24.375Z,18.50
2022-08-31T02:34:52.572Z,18.40
2022-08-31T02:37:21.010Z,18.40
2022-08-31T02:39:48.760Z,18.40
2022-08-31T02:42:18.465Z,18.50
2022-08-31T02:44:45.561Z,18.50
2022-08-31T02:47:12.716Z,18.60
2022-08-31T02:49:44.987Z,18.60
2022-08-31T02:52:13.281Z,18.60
2022-08-31T02:54:41.071Z,18.50
2022-08-31T02:57:08.018Z,18.50
2022-08-31T02:59:35.065Z,18.40
2022-08-31T03:02:02.093Z,18.50
2022-08-31T03:04:29.933Z,18.40
2022-08-31T03:06:57.148Z,18.40
2022-08-31T03:09:25.440Z,18.30
2022-08-31T03:11:52.444Z,18.20
2022-08-31T03:14:20.425Z,18.20
2022-08-31T03:16:47.364Z,18.20
2022-08-31T03:19:20.801Z,18.30
2022-08-31T03:21:47.958Z,18.30
2022-08-31T03:24:27.263Z,18.30
2022-08-31T03:26:54.861Z,18.20
2022-08-31T03:29:21.862Z,18.30
2022-08-31T03:31:54.537Z,18.30
2022-08-31T03:34:21.846Z,18.30
2022-08-31T03:36:48.744Z,18.30
2022-08-31T03:39:15.728Z,18.30
2022-08-31T03:41:44.041Z,18.40
2022-08-31T03:44:11.077Z,18.30
2022-08-31T03:46:41.216Z,18.30
2022-08-31T03:49:08.103Z,18.30
2022-08-31T03:51:35.380Z,18.20
2022-08-31T03:54:03.173Z,18.20
2022-08-31T03:56:32.878Z,18.10
2022-08-31T03:59:01.111Z,18.10
2022-08-31T04:01:46.888Z,18.10
2022-08-31T04:04:32.168Z,18.10
2022-08-31T04:07:18.614Z,18.10
2022-08-31T04:10:23.778Z,18.10
2022-08-31T04:13:09.312Z,18.20
2022-08-31T04:16:01.209Z,18.20
2022-08-31T04:19:04.323Z,18.20
2022-08-31T04:21:41.233Z,18.30
2022-08-31T04:24:12.263Z,18.40
2022-08-31T04:26:40.943Z,18.40
2022-08-31T04:29:13.008Z,18.40
2022-08-31T04:31:42.325Z,18.30
2022-08-31T04:34:09.631Z,18.30
2022-08-31T04:36:37.911Z,18.30
2022-08-31T04:39:06.090Z,18.20
2022-08-31T04:41:36.893Z,18.20
2022-08-31T04:44:05.158Z,18.30
2022-08-31T04:46:33.462Z,18.20
2022-08-31T04:49:01.798Z,18.20
2022-08-31T04:51:35.898Z,18.20
2022-08-31T04:54:03.584Z,18.20
2022-08-31T04:56:32.730Z,18.10
2022-08-31T04:59:00.992Z,18.00
2022-08-31T05:01:42.519Z,18.00
2022-08-31T05:04:24.114Z,18.00
2022-08-31T05:06:52.161Z,17.90
2022-08-31T05:09:22.517Z,17.90
2022-08-31T05:11:51.042Z,17.90
2022-08-31T05:14:18.837Z,17.90
2022-08-31T05:16:52.121Z,17.90
2022-08-31T05:19:20.885Z,17.90
2022-08-31T05:21:48.875Z,18.00
2022-08-31T05:24:20.407Z,18.00
2022-08-31T05:26:49.446Z,18.00
2022-08-31T05:29:19.758Z,18.00
2022-08-31T05:31:52.022Z,18.00
2022-08-31T05:34:22.049Z,18.00
2022-08-31T05:36:51.401Z,17.90
2022-08-31T05:39:19.655Z,17.90
2022-08-31T05:41:47.672Z,17.90
2022-08-31T05:44:17.256Z,17.90
2022-08-31T05:46:44.387Z,17.80
2022-08-31T05:49:11.671Z,17.80
2022-08-31T05:51:40.532Z,17.80
2022-08-31T05:54:08.468Z,17.80
2022-08-31T05:56:35.686Z,17.70
2022-08-31T05:59:03.171Z,17.70
2022-08-31T06:01:34.172Z,17.60
2022-08-31T06:04:13.433Z,17.70
2022-08-31T06:06:43.373Z,17.60
2022-08-31T06:09:13.123Z,17.60
2022-08-31T06:11:42.113Z,17.70
2022-08-31T06:14:12.251Z,17.70
2022-08-31T06:16:43.753Z,17.80
2022-08-31T06:19:11.670Z,17.80
2022-08-31T06:21:49.886Z,17.90
2022-08-31T06:24:21.310Z,18.00
2022-08-31T06:26:58.436Z,18.10
2022-08-31T06:29:32.396Z,18.10
2022-08-31T06:32:01.213Z,18.20
2022-08-31T06:34:29.562Z,18.30
2022-08-31T06:37:18.938Z,18.40
2022-08-31T06:39:47.625Z,18.40
2022-08-31T06:42:33.564Z,18.40
2022-08-31T06:45:03.662Z,18.40
2022-08-31T06:47:49.610Z,18.40
2022-08-31T06:50:18.992Z,18.40
2022-08-31T06:52:49.619Z,18.40
2022-08-31T06:55:20.569Z,18.30
2022-08-31T06:58:05.988Z,18.30
2022-08-31T07:00:38.903Z,18.20
2022-08-31T07:03:33.366Z,18.20
2022-08-31T07:06:06.196Z,18.10
2022-08-31T07:08:34.816Z,18.00
2022-08-31T07:11:01.964Z,18.00
2022-08-31T07:13:29.753Z,18.00
2022-08-31T07:16:04.597Z,18.00
2022-08-31T07:18:32.099Z,18.00
2022-08-31T07:21:08.052Z,18.00
2022-08-31T07:23:36.652Z,18.00
2022-08-31T07:26:12.659Z,18.00
2022-08-31T07:28:43.188Z,18.00
2022-08-31T07:31:13.184Z,17.90
2022-08-31T07:33:41.823Z,17.90
2022-08-31T07:36:11.101Z,17.90
2022-08-31T07:39:16.303Z,17.90
2022-08-31T07:42:04.882Z,17.90
2022-08-31T07:44:34.547Z,17.90
2022-08-31T07:47:02.374Z,17.90
2022-08-31T07:49:30.732Z,17.90
2022-08-31T07:52:32.457Z,17.90
2022-08-31T07:55:11.842Z,17.90
2022-08-31T07:57:54.751Z,17.90
2022-08-31T08:00:24.699Z,18.00
2022-08-31T08:02:53.943Z,18.00
2022-08-31T08:05:28.959Z,18.00
2022-08-31T08:08:22.787Z,18.10
2022-08-31T08:11:06.893Z,18.10
2022-08-31T08:13:44.086Z,18.10
2022-08-31T08:16:34.307Z,18.10
2022-08-31T08:19:20.058Z,18.20
2022-08-31T08:21:48.534Z,18.20
2022-08-31T08:24:21.757Z,18.20
2022-08-31T08:27:08.317Z,18.20
2022-08-31T08:30:01.681Z,18.10
2022-08-31T08:32:31.326Z,18.10
2022-08-31T08:34:58.420Z,18.20
2022-08-31T08:37:47.797Z,18.10
2022-08-31T08:40:26.412Z,18.10
2022-08-31T08:42:55.720Z,18.20
2022-08-31T08:45:23.471Z,18.10
2022-08-31T08:47:54.487Z,18.10
2022-08-31T08:50:22.826Z,18.20
2022-08-31T08:52:50.895Z,18.30
2022-08-31T08:55:22.072Z,18.40
2022-08-31T08:57:52.326Z,18.40
2022-08-31T09:00:24.954Z,18.40
2022-08-31T09:03:01.066Z,18.50
2022-08-31T09:06:09.717Z,18.50
2022-08-31T09:09:20.294Z,18.60
2022-08-31T09:12:14.838Z,18.70
2022-08-31T09:14:54.028Z,18.80
2022-08-31T09:17:38.633Z,18.80
2022-08-31T09:20:06.547Z,18.80
2022-08-31T09:22:46.886Z,18.90
2022-08-31T09:25:19.449Z,18.90
2022-08-31T09:28:02.979Z,18.90
2022-08-31T09:30:39.355Z,19.00
2022-08-31T09:33:15.820Z,19.10
2022-08-31T09:35:43.661Z,19.20
2022-08-31T09:38:16.225Z,19.50
2022-08-31T09:40:47.827Z,19.60
2022-08-31T09:43:24.930Z,19.70
2022-08-31T09:45:57.210Z,19.80
2022-08-31T09:48:56.007Z,20.00
2022-08-31T09:51:28.116Z,20.20
2022-08-31T09:54:16.979Z,20.30
2022-08-31T09:56:57.431Z,20.40
2022-08-31T09:59:34.476Z,20.40
2022-08-31T10:02:02.495Z,20.40
2022-08-31T10:04:42.167Z,20.50
2022-08-31T10:07:24.973Z,20.50
2022-08-31T10:09:57.944Z,20.60
2022-08-31T10:12:42.061Z,20.60
2022-08-31T10:15:15.867Z,20.60
2022-08-31T10:17:49.104Z,20.70
2022-08-31T10:20:21.186Z,20.80
2022-08-31T10:22:52.072Z,20.80
2022-08-31T10:25:31.094Z,20.80
2022-08-31T10:28:07.689Z,20.90
2022-08-31T10:30:40.760Z,21.00
2022-08-31T10:33:14.346Z,21.00
2022-08-31T10:35:51.395Z,21.10
2022-08-31T10:38:26.406Z,21.10
2022-08-31T10:41:03.027Z,21.00
2022-08-31T10:43:38.903Z,20.90
2022-08-31T10:46:06.945Z,21.00
2022-08-31T10:48:34.014Z,21.00
2022-08-31T10:51:14.152Z,21.10
2022-08-31T10:53:57.603Z,21.10
2022-08-31T10:56:41.264Z,21.20
2022-08-31T10:59:20.631Z,21.10
2022-08-31T11:01:56.247Z,21.20
2022-08-31T11:05:01.818Z,21.30
2022-08-31T11:07:39.347Z,21.40
2022-08-31T11:10:19.916Z,21.50
2022-08-31T11:12:52.162Z,21.60
2022-08-31T11:15:48.353Z,21.60
2022-08-31T11:18:43.996Z,21.60
2022-08-31T11:21:36.923Z,21.60
2022-08-31T11:24:20.859Z,21.70
2022-08-31T11:26:54.983Z,21.70
2022-08-31T11:29:41.518Z,21.80
2022-08-31T11:32:17.645Z,21.90
2022-08-31T11:34:50.632Z,21.90
2022-08-31T11:37:52.996Z,21.90
2022-08-31T11:41:12.072Z,22.00
2022-08-31T11:43:51.933Z,22.10
2022-08-31T11:46:43.121Z,22.00
2022-08-31T11:49:34.571Z,21.90
2022-08-31T11:52:10.117Z,21.80
2022-08-31T11:54:58.277Z,21.60
2022-08-31T11:57:29.029Z,21.50
2022-08-31T11:59:56.091Z,21.60
2022-08-31T12:02:44.699Z,21.50
2022-08-31T12:05:12.015Z,21.50
2022-08-31T12:07:42.711Z,21.50
2022-08-31T12:10:43.047Z,21.50
2022-08-31T12:13:26.260Z,21.50
2022-08-31T12:16:17.898Z,21.50
2022-08-31T12:19:34.085Z,21.60
2022-08-31T12:22:31.025Z,21.70
2022-08-31T12:25:14.317Z,21.70
2022-08-31T12:27:51.788Z,21.60
2022-08-31T12:30:21.373Z,21.50
2022-08-31T12:32:58.858Z,21.50
2022-08-31T12:35:27.260Z,21.40
2022-08-31T12:37:59.928Z,21.50
2022-08-31T12:40:31.112Z,21.60
2022-08-31T12:43:03.632Z,21.60
2022-08-31T12:46:06.133Z,21.60
2022-08-31T12:48:55.177Z,21.60
2022-08-31T12:51:36.013Z,21.70
2022-08-31T12:54:26.882Z,21.80
2022-08-31T12:57:03.152Z,22.00
2022-08-31T12:59:57.352Z,22.20
2022-08-31T13:02:26.952Z,22.40
2022-08-31T13:04:54.547Z,22.50
2022-08-31T13:07:23.608Z,22.80
2022-08-31T13:10:04.291Z,23.00
2022-08-31T13:12:32.745Z,23.20
2022-08-31T13:14:59.632Z,23.40
2022-08-31T13:17:29.316Z,23.80
2022-08-31T13:19:58.548Z,24.10
2022-08-31T13:22:28.929Z,24.30
2022-08-31T13:24:57.541Z,24.60
2022-08-31T13:27:26.713Z,24.90
2022-08-31T13:30:09.948Z,25.10
2022-08-31T13:32:40.865Z,25.20
2022-08-31T13:35:13.480Z,25.10
2022-08-31T13:37:45.256Z,25.10
2022-08-31T13:40:17.302Z,24.90
2022-08-31T13:42:50.851Z,24.70
2022-08-31T13:45:30.449Z,24.60
2022-08-31T13:47:59.834Z,24.50
2022-08-31T13:50:32.930Z,24.50
2022-08-31T13:53:26.308Z,24.50
2022-08-31T13:55:49.954Z,24.50
2022-08-31T13:58:26.801Z,24.80
2022-08-31T14:01:19.157Z,25.00
2022-08-31T14:03:57.091Z,24.90
2022-08-31T14:06:26.655Z,24.90
2022-08-31T14:09:05.693Z,24.90
2022-08-31T14:11:35.567Z,24.90
2022-08-31T14:14:07.336Z,24.60
2022-08-31T14:16:43.567Z,24.30
2022-08-31T14:19:13.278Z,24.10
2022-08-31T14:21:42.123Z,24.20
2022-08-31T14:24:12.085Z,24.30
2022-08-31T14:26:41.771Z,24.50
2022-08-31T14:29:12.303Z,24.80
2022-08-31T14:31:45.194Z,25.10
2022-08-31T14:34:22.647Z,25.30
2022-08-31T14:36:54.332Z,25.40
2022-08-31T14:39:24.528Z,25.40
2022-08-31T14:41:53.020Z,25.10
2022-08-31T14:44:24.308Z,24.80
2022-08-31T14:46:52.983Z,24.60
2022-08-31T14:49:19.956Z,24.30
2022-08-31T14:51:47.244Z,24.10
2022-08-31T14:54:16.876Z,23.90
2022-08-31T14:56:47.962Z,23.70
2022-08-31T14:59:17.087Z,23.60
2022-08-31T15:01:45.233Z,23.50
2022-08-31T15:04:16.381Z,23.30
2022-08-31T15:06:48.001Z,23.20
2022-08-31T15:09:14.904Z,23.10
2022-08-31T15:11:43.665Z,23.10
2022-08-31T15:14:13.967Z,23.20
2022-08-31T15:16:42.527Z,23.30
2022-08-31T15:19:13.582Z,23.40
2022-08-31T15:21:52.182Z,23.50
2022-08-31T15:24:21.427Z,23.50
2022-08-31T15:26:48.546Z,23.70
2022-08-31T15:29:16.619Z,23.80
2022-08-31T15:31:49.137Z,23.90
2022-08-31T15:34:22.479Z,23.90
2022-08-31T15:36:57.478Z,24.00
2022-08-31T15:39:25.135Z,24.10
2022-08-31T15:41:52.082Z,24.20
2022-08-31T15:44:20.156Z,24.10
2022-08-31T15:47:06.471Z,23.90
2022-08-31T15:49:33.768Z,23.60
2022-08-31T15:52:06.846Z,23.20
2022-08-31T15:54:35.772Z,22.90
2022-08-31T15:57:06.078Z,22.60
2022-08-31T15:59:33.669Z,22.40
2022-08-31T16:02:01.693Z,22.20
2022-08-31T16:04:28.881Z,22.00
2022-08-31T16:06:56.662Z,21.60
2022-08-31T16:09:25.301Z,21.20
2022-08-31T16:11:52.368Z,21.00
2022-08-31T16:14:20.380Z,20.70
2022-08-31T16:16:49.251Z,20.40
2022-08-31T16:19:34.245Z,20.30
2022-08-31T16:22:03.152Z,20.20
2022-08-31T16:24:35.945Z,20.30
2022-08-31T16:27:06.401Z,20.30
2022-08-31T16:29:33.942Z,20.30
2022-08-31T16:32:01.545Z,20.30
2022-08-31T16:34:31.144Z,20.40
2022-08-31T16:36:58.150Z,20.40
2022-08-31T16:39:27.974Z,20.50
2022-08-31T16:41:56.840Z,20.50
2022-08-31T16:44:23.794Z,20.40
2022-08-31T16:46:59.093Z,20.40
2022-08-31T16:49:36.543Z,20.30
2022-08-31T16:52:06.020Z,20.30
2022-08-31T16:54:34.079Z,20.20
2022-08-31T16:57:02.374Z,20.20
2022-08-31T16:59:30.030Z,20.10
2022-08-31T17:01:57.188Z,20.10
2022-08-31T17:04:48.529Z,20.10
2022-08-31T17:07:15.184Z,20.00
2022-08-31T17:09:42.881Z,19.90
2022-08-31T17:12:15.962Z,19.80
2022-08-31T17:14:46.846Z,19.80
2022-08-31T17:17:16.142Z,19.70
2022-08-31T17:19:45.244Z,19.60
2022-08-31T17:22:21.533Z,19.50
2022-08-31T17:24:50.826Z,19.40
2022-08-31T17:27:21.031Z,19.40
2022-08-31T17:29:51.854Z,19.30
2022-08-31T17:32:21.866Z,19.30
2022-08-31T17:34:51.809Z,19.40
2022-08-31T17:37:21.744Z,19.40
2022-08-31T17:39:51.196Z,19.30
2022-08-31T17:42:20.999Z,19.20
2022-08-31T17:44:50.781Z,19.20
2022-08-31T17:47:18.674Z,19.10
2022-08-31T17:49:46.797Z,19.00
2022-08-31T17:52:13.974Z,19.00
2022-08-31T17:54:43.246Z,18.90
2022-08-31T17:57:12.580Z,18.90
2022-08-31T17:59:43.551Z,18.80
2022-08-31T18:02:13.771Z,18.80
2022-08-31T18:04:41.583Z,18.70
2022-08-31T18:07:10.013Z,18.60
2022-08-31T18:09:40.765Z,18.60
2022-08-31T18:12:08.931Z,18.50
2022-08-31T18:14:38.108Z,18.50
2022-08-31T18:17:08.776Z,18.40
2022-08-31T18:19:36.456Z,18.30
2022-08-31T18:22:03.597Z,18.30
2022-08-31T18:24:34.117Z,18.30
2022-08-31T18:27:06.849Z,18.30
2022-08-31T18:29:35.185Z,18.20
2022-08-31T18:32:04.239Z,18.20
2022-08-31T18:34:35.214Z,18.20
2022-08-31T18:37:02.450Z,18.20
2022-08-31T18:39:51.234Z,18.20
2022-08-31T18:42:38.009Z,18.20
2022-08-31T18:45:20.782Z,18.20
2022-08-31T18:48:20.967Z,18.20
2022-08-31T18:50:44.302Z,18.10
2022-08-31T18:53:15.002Z,18.00
2022-08-31T18:55:42.809Z,18.00
2022-08-31T18:58:10.830Z,17.80
2022-08-31T19:00:38.034Z,17.80
2022-08-31T19:03:05.780Z,17.70
2022-08-31T19:05:33.234Z,17.70
2022-08-31T19:08:01.502Z,17.70
2022-08-31T19:10:28.483Z,17.70
2022-08-31T19:12:55.878Z,17.70
2022-08-31T19:15:33.638Z,17.70
2022-08-31T19:18:03.596Z,17.80
2022-08-31T19:20:30.847Z,17.70
2022-08-31T19:22:57.817Z,17.70
2022-08-31T19:25:26.269Z,17.60
2022-08-31T19:27:54.855Z,17.40
2022-08-31T19:30:25.989Z,17.40
2022-08-31T19:32:56.411Z,17.30
2022-08-31T19:35:25.876Z,17.30
2022-08-31T19:37:53.719Z,17.30
2022-08-31T19:40:21.534Z,17.30
2022-08-31T19:45:45.699Z,17.30
2022-08-31T19:48:13.143Z,17.30
2022-08-31T19:50:43.544Z,17.30
2022-08-31T19:53:12.104Z,17.30
2022-08-31T19:55:50.038Z,17.30
2022-08-31T19:58:25.371Z,17.30
2022-08-31T20:01:02.931Z,17.30
2022-08-31T20:03:34.401Z,17.20
2022-08-31T20:06:06.172Z,17.10
2022-08-31T20:08:33.514Z,17.00
2022-08-31T20:11:00.612Z,16.90
2022-08-31T20:13:29.158Z,16.80
2022-08-31T20:15:56.308Z,16.80
2022-08-31T20:18:26.281Z,16.80
2022-08-31T20:20:57.383Z,16.80
2022-08-31T20:23:24.541Z,16.80
2022-08-31T20:25:51.760Z,16.80
2022-08-31T20:28:23.135Z,16.80
2022-08-31T20:30:52.888Z,16.80
2022-08-31T20:33:20.924Z,16.80
2022-08-31T20:35:48.412Z,16.80
2022-08-31T20:38:17.258Z,16.80
2022-08-31T20:40:47.287Z,16.80
2022-08-31T20:43:14.874Z,16.80
2022-08-31T20:45:42.245Z,16.80
2022-08-31T20:48:29.424Z,16.80
2022-08-31T20:50:57.137Z,16.80
2022-08-31T20:53:42.889Z,16.80
2022-08-31T20:56:11.370Z,16.80
2022-08-31T20:58:44.514Z,16.80
2022-08-31T21:01:14.084Z,16.70
2022-08-31T21:03:42.559Z,16.70
2022-08-31T21:06:12.102Z,16.60
2022-08-31T21:08:40.871Z,16.60
2022-08-31T21:11:12.794Z,16.60
2022-08-31T21:13:39.947Z,16.50
2022-08-31T21:16:07.192Z,16.40
2022-08-31T21:18:35.000Z,16.40
2022-08-31T21:21:06.447Z,16.40
2022-08-31T21:23:34.056Z,16.40
2022-08-31T21:26:01.245Z,16.30
2022-08-31T21:28:28.200Z,16.40
2022-08-31T21:31:06.394Z,16.30
2022-08-31T21:33:43.089Z,16.30
2022-08-31T21:36:14.963Z,16.30
2022-08-31T21:38:42.714Z,16.20
2022-08-31T21:41:11.087Z,16.20
2022-08-31T21:43:38.547Z,16.10
2022-08-31T21:46:08.664Z,16.10
2022-08-31T21:48:38.103Z,16.20
2022-08-31T21:51:17.757Z,16.20
2022-08-31T21:53:47.738Z,16.20
2022-08-31T21:56:15.627Z,16.20
2022-08-31T21:58:42.946Z,16.20
2022-08-31T22:01:13.342Z,16.20
2022-08-31T22:03:40.595Z,16.20
2022-08-31T22:06:08.041Z,16.20
2022-08-31T22:08:37.669Z,16.10
2022-08-31T22:11:08.131Z,16.10
2022-08-31T22:13:37.073Z,16.00
2022-08-31T22:16:17.480Z,16.10
2022-08-31T22:19:06.357Z,16.00
2022-08-31T22:21:35.781Z,16.00
2022-08-31T22:24:07.403Z,16.00
2022-08-31T22:26:38.320Z,16.00
2022-08-31T22:29:07.403Z,15.90
2022-08-31T22:31:37.197Z,15.90
2022-08-31T22:34:05.888Z,15.90
2022-08-31T22:36:34.431Z,15.90
2022-08-31T22:39:03.529Z,15.80
2022-08-31T22:41:32.858Z,15.70
2022-08-31T22:44:00.372Z,15.70
2022-08-31T22:46:27.865Z,15.60
2022-08-31T22:48:54.880Z,15.60
2022-08-31T22:51:23.222Z,15.60
2022-08-31T22:53:53.496Z,15.50
2022-08-31T22:56:25.898Z,15.50
2022-08-31T22:58:55.941Z,15.50
2022-08-31T23:01:24.978Z,15.50
2022-08-31T23:03:53.147Z,15.40
2022-08-31T23:06:20.751Z,15.40
2022-08-31T23:08:50.161Z,15.50
2022-08-31T23:11:19.239Z,15.50
2022-08-31T23:13:53.749Z,15.50
2022-08-31T23:16:25.316Z,15.50
2022-08-31T23:18:57.596Z,15.50
2022-08-31T23:21:25.014Z,15.50
2022-08-31T23:23:53.076Z,15.50
2022-08-31T23:26:21.100Z,15.50
2022-08-31T23:28:48.760Z,15.40
2022-08-31T23:31:15.766Z,15.40
2022-08-31T23:33:46.965Z,15.40
2022-08-31T23:36:14.385Z,15.30
2022-08-31T23:38:44.898Z,15.40
2022-08-31T23:41:13.882Z,15.40
2022-08-31T23:43:40.878Z,15.40
2022-08-31T23:46:07.853Z,15.40
2022-08-31T23:48:34.755Z,15.40
2022-08-31T23:51:06.467Z,15.30
2022-08-31T23:53:33.607Z,15.30
2022-08-31T23:56:01.972Z,15.30
2022-08-31T23:58:29.999Z,15.30
